Time;durP1;ratioP1;P1;durP2;ratioP2;P2;SDS_P1;SDS_P2;PMS_P1;PMS_P2;Temp;Humidity;BMP_temperature;BMP_pressure;BME280_temperature;BME280_humidity;BME280_pressure;Samples;Min_cycle;Max_cycle;Signal;HPM_P1;HPM_P2
2021/08/27 00:00:00;;;;;;;;;;;;;;;24.84;50.16;99415.72;2062373;28;20596;-69
2021/08/27 00:01:00;;;;;;;;;;;;;;;24.85;50.01;99415.53;2058804;28;19983;-69
2021/08/27 00:02:01;;;;;;;;;;;;;;;24.85;49.94;99422.94;2057439;28;19922;-69
2021/08/27 00:03:02;;;;;;;;;;;;;;;24.85;50.16;99422.94;2060764;28;19975;-69
2021/08/27 00:04:02;;;;;;;;;;;;;;;24.85;50.21;99422.94;2058493;28;20300;-69
2021/08/27 00:05:05;;;;;;;;;;;;;;;24.84;50.12;99423.97;2059637;28;19964;-69
2021/08/27 00:06:05;;;;;;;;;;;;;;;24.84;50.18;99421.22;2056892;28;19929;-69
2021/08/27 00:07:06;;;;;;;;;;;;;;;24.82;49.91;99424.22;2057343;28;19983;-69
2021/08/27 00:08:06;;;;;;;;;;;;;;;24.84;50.02;99415.72;2061256;28;20426;-69
2021/08/27 00:09:06;;;;;;;;;;;;;;;24.83;49.99;99420.38;2058461;28;19920;-69
2021/08/27 00:10:07;;;;;;;;;;;;;;;24.84;50.20;99421.22;2058153;28;20659;-69
2021/08/27 00:11:07;;;;;;;;;;;;;;;24.84;50.04;99418.47;2057509;28;19925;-68
2021/08/27 00:12:08;;;;;;;;;;;;;;;24.82;50.07;99426.97;2057703;28;20028;-69
2021/08/27 00:13:11;;;;;;;;;;;;;;;24.81;50.11;99423.34;2056061;28;19926;-69
2021/08/27 00:14:11;;;;;;;;;;;;;;;24.82;50.23;99418.69;2058013;28;20003;-69
2021/08/27 00:15:12;;;;;;;;;;;;;;;24.81;50.21;99417.81;2058623;28;19925;-68
2021/08/27 00:16:12;;;;;;;;;;;;;;;24.83;50.18;99419.53;2058042;28;20014;-69
2021/08/27 00:17:12;;;;;;;;;;;;;;;24.82;50.08;99424.22;2060760;28;19988;-68
2021/08/27 00:18:13;;;;;;;;;;;;;;;24.83;50.22;99428.66;2059100;28;19927;-69
2021/08/27 00:19:13;;;;;;;;;;;;;;;24.82;50.22;99429.72;2057940;28;19926;-69
2021/08/27 00:20:14;;;;;;;;;;;;;;;24.83;50.11;99425.06;2061124;28;19964;-69
2021/08/27 00:21:14;;;;;;;;;;;;;;;24.81;50.07;99417.81;2065163;28;19969;-69
2021/08/27 00:22:14;;;;;;;;;;;;;;;24.83;50.20;99422.28;2061977;28;20007;-69
2021/08/27 00:23:14;;;;;;;;;;;;;;;24.81;50.10;99428.84;2058100;28;19921;-69
2021/08/27 00:24:15;;;;;;;;;;;;;;;24.81;50.34;99423.34;2058219;28;19921;-69
2021/08/27 00:25:15;;;;;;;;;;;;;;;24.80;50.05;99421.66;2058373;28;19921;-69
2021/08/27 00:26:16;;;;;;;;;;;;;;;24.80;50.15;99416.13;2058228;28;19961;-68
2021/08/27 00:27:16;;;;;;;;;;;;;;;24.79;50.07;99417.19;2058367;28;20435;-69
2021/08/27 00:28:17;;;;;;;;;;;;;;;24.79;50.13;99422.72;2055998;28;19981;-69
2021/08/27 00:29:17;;;;;;;;;;;;;;;24.78;50.13;99418.25;2057085;28;20138;-69
2021/08/27 00:30:17;;;;;;;;;;;;;;;24.79;50.06;99419.06;2058589;28;19921;-69
2021/08/27 00:31:18;;;;;;;;;;;;;;;24.79;50.13;99424.59;2060085;28;19952;-69
2021/08/27 00:32:18;;;;;;;;;;;;;;;24.78;50.06;99429.25;2059856;28;20716;-69
2021/08/27 00:33:18;;;;;;;;;;;;;;;24.79;50.11;99424.59;2060422;28;20167;-69
2021/08/27 00:34:19;;;;;;;;;;;;;;;24.77;50.11;99424.81;2055152;28;20448;-69
2021/08/27 00:35:19;;;;;;;;;;;;;;;24.79;50.26;99424.59;2059049;28;19968;-69
2021/08/27 00:36:19;;;;;;;;;;;;;;;24.78;50.18;99426.50;2058536;28;20019;-69
2021/08/27 00:37:20;;;;;;;;;;;;;;;24.78;50.29;99426.50;2056636;28;21187;-69
2021/08/27 00:38:21;;;;;;;;;;;;;;;24.78;50.12;99418.25;2059828;28;19922;-69
2021/08/27 00:39:22;;;;;;;;;;;;;;;24.78;50.20;99421.00;2060812;28;19926;-69
2021/08/27 00:40:22;;;;;;;;;;;;;;;24.77;50.04;99416.53;2059814;28;19929;-69
2021/08/27 00:41:22;;;;;;;;;;;;;;;24.77;50.19;99422.06;2056513;28;19964;-69
2021/08/27 00:42:23;;;;;;;;;;;;;;;24.78;50.10;99418.25;2058372;28;20632;-69
2021/08/27 00:43:23;;;;;;;;;;;;;;;24.78;50.25;99418.25;2059670;28;19925;-69
2021/08/27 00:44:23;;;;;;;;;;;;;;;24.78;50.32;99420.16;2075063;28;19921;-69
2021/08/27 00:45:24;;;;;;;;;;;;;;;24.79;50.13;99419.06;2074938;28;19921;-69
2021/08/27 00:46:24;;;;;;;;;;;;;;;24.77;50.10;99422.06;2055641;28;19963;-69
2021/08/27 00:47:25;;;;;;;;;;;;;;;24.77;50.11;99419.31;2062143;28;20105;-69
2021/08/27 00:48:25;;;;;;;;;;;;;;;24.77;50.13;99422.06;2060146;28;19929;-69
2021/08/27 00:49:25;;;;;;;;;;;;;;;24.77;50.04;99413.78;2055958;28;19926;-69
2021/08/27 00:50:26;;;;;;;;;;;;;;;24.78;50.25;99422.91;2058686;28;20486;-69
2021/08/27 00:51:26;;;;;;;;;;;;;;;24.78;50.21;99420.16;2060132;28;19928;-69
2021/08/27 00:52:27;;;;;;;;;;;;;;;24.77;50.19;99422.06;2061087;28;19917;-69
2021/08/27 00:53:27;;;;;;;;;;;;;;;24.77;50.22;99411.03;2057423;28;19978;-67
2021/08/27 00:54:27;;;;;;;;;;;;;;;24.78;50.19;99412.72;2056033;28;20008;-69
2021/08/27 00:55:28;;;;;;;;;;;;;;;24.77;50.05;99413.78;2061552;28;19929;-69
2021/08/27 00:56:29;;;;;;;;;;;;;;;24.77;50.21;99416.53;2059440;28;19921;-69
2021/08/27 00:57:29;;;;;;;;;;;;;;;24.76;50.33;99420.34;2060695;28;19921;-69
2021/08/27 00:58:29;;;;;;;;;;;;;;;24.77;50.21;99422.06;2059915;28;20266;-69
2021/08/27 00:59:29;;;;;;;;;;;;;;;24.76;50.42;99419.50;2059104;28;19940;-69
2021/08/27 01:00:30;;;;;;;;;;;;;;;24.76;50.19;99414.81;2057538;28;19921;-69
2021/08/27 01:01:30;;;;;;;;;;;;;;;24.77;50.25;99416.53;2057431;28;19917;-69
2021/08/27 01:02:31;;;;;;;;;;;;;;;24.77;50.42;99412.94;2061732;28;20391;-69
2021/08/27 01:03:31;;;;;;;;;;;;;;;24.76;50.28;99408.47;2056120;28;20428;-69
2021/08/27 01:04:31;;;;;;;;;;;;;;;24.77;50.21;99416.53;2057673;28;19921;-69
2021/08/27 01:05:32;;;;;;;;;;;;;;;24.76;50.43;99420.34;2058172;28;20361;-69
2021/08/27 01:07:02;;;;;;;;;;;;;;;24.76;50.45;99416.75;2061908;28;19924;-69
2021/08/27 01:08:25;;;;;;;;;;;;;;;24.76;50.30;99420.34;2058026;28;20316;-69
2021/08/27 01:09:25;;;;;;;;;;;;;;;24.75;50.38;99423.31;2056501;28;20008;-69
2021/08/27 01:10:31;;;;;;;;;;;;;;;24.75;50.30;99420.56;2059181;28;20576;-68
2021/08/27 01:11:34;;;;;;;;;;;;;;;24.73;50.50;99415.25;2056299;28;20447;-68
2021/08/27 01:12:34;;;;;;;;;;;;;;;24.74;50.28;99414.22;2060341;28;19926;-68
2021/08/27 01:13:43;;;;;;;;;;;;;;;24.73;50.27;99415.25;2057457;28;19921;-68
2021/08/27 01:14:49;;;;;;;;;;;;;;;24.74;50.35;99411.44;2058569;28;20412;-68
2021/08/27 01:15:49;;;;;;;;;;;;;;;24.74;50.32;99411.44;2052647;28;19922;-68
2021/08/27 01:16:55;;;;;;;;;;;;;;;24.73;50.24;99409.72;2058019;28;19921;-68
2021/08/27 01:18:09;;;;;;;;;;;;;;;24.73;50.32;99409.72;2060227;28;19922;-69
2021/08/27 01:19:28;;;;;;;;;;;;;;;24.73;50.38;99408.88;2056360;28;20391;-68
2021/08/27 01:20:50;;;;;;;;;;;;;;;24.74;50.33;99405.06;2056172;28;19930;-69
2021/08/27 01:22:09;;;;;;;;;;;;;;;24.73;50.33;99404.22;2058434;28;20723;-68
2021/08/27 01:23:12;;;;;;;;;;;;;;;24.74;50.54;99411.44;2054204;28;20423;-69
2021/08/27 01:24:13;;;;;;;;;;;;;;;24.74;50.35;99411.44;2060244;28;19968;-69
2021/08/27 01:25:17;;;;;;;;;;;;;;;24.73;50.32;99409.72;2074512;28;20590;-69
2021/08/27 01:26:19;;;;;;;;;;;;;;;24.74;50.54;99411.44;2070795;28;19909;-68
2021/08/27 01:27:21;;;;;;;;;;;;;;;24.73;50.28;99409.72;2058466;28;20740;-68
2021/08/27 01:28:22;;;;;;;;;;;;;;;24.73;50.55;99406.97;2058295;28;19921;-69
2021/08/27 01:29:29;;;;;;;;;;;;;;;24.72;50.42;99405.28;2054222;28;19964;-69
2021/08/27 01:30:38;;;;;;;;;;;;;;;24.72;50.53;99408.03;2061235;28;19921;-68
2021/08/27 01:31:46;;;;;;;;;;;;;;;24.71;50.52;99409.06;2058729;28;19937;-69
2021/08/27 01:32:59;;;;;;;;;;;;;;;24.71;50.45;99406.31;2062793;28;19956;-69
2021/08/27 01:33:59;;;;;;;;;;;;;;;24.72;50.33;99412.69;2059599;28;19963;-68
2021/08/27 01:35:00;;;;;;;;;;;;;;;24.71;50.47;99411.84;2058254;28;19921;-69
2021/08/27 01:36:01;;;;;;;;;;;;;;;24.71;50.47;99406.31;2058660;28;19956;-69
2021/08/27 01:37:03;;;;;;;;;;;;;;;24.71;50.38;99411.00;2060441;28;19929;-69
2021/08/27 01:38:06;;;;;;;;;;;;;;;24.71;50.55;99405.47;2057725;28;19983;-68
2021/08/27 01:39:08;;;;;;;;;;;;;;;24.72;50.36;99407.16;2053832;28;20012;-69
2021/08/27 01:40:09;;;;;;;;;;;;;;;24.70;50.61;99404.63;2057266;28;19980;-69
2021/08/27 01:41:11;;;;;;;;;;;;;;;24.70;50.46;99410.16;2055274;28;19917;-69
2021/08/27 01:42:13;;;;;;;;;;;;;;;24.71;50.45;99409.06;2053924;28;19917;-69
2021/08/27 01:43:14;;;;;;;;;;;;;;;24.71;50.61;99403.56;2066407;28;19916;-69
2021/08/27 01:44:14;;;;;;;;;;;;;;;24.71;50.47;99405.47;2058715;28;19945;-69
2021/08/27 01:45:15;;;;;;;;;;;;;;;24.71;50.38;99403.56;2062875;28;19917;-69
2021/08/27 01:46:16;;;;;;;;;;;;;;;24.71;50.46;99406.31;2058839;28;19917;-69
2021/08/27 01:47:18;;;;;;;;;;;;;;;24.71;50.41;99411.84;2058265;28;19971;-69
2021/08/27 01:48:19;;;;;;;;;;;;;;;24.71;50.45;99405.47;2059539;28;19917;-68
2021/08/27 01:49:19;;;;;;;;;;;;;;;24.71;50.42;99406.31;2059579;28;19917;-69
2021/08/27 01:50:21;;;;;;;;;;;;;;;24.70;50.50;99399.13;2059248;28;19925;-69
2021/08/27 01:51:22;;;;;;;;;;;;;;;24.71;50.57;99402.72;2059444;28;19957;-69
2021/08/27 01:52:23;;;;;;;;;;;;;;;24.71;50.42;99400.81;2058341;28;19918;-69
2021/08/27 01:53:24;;;;;;;;;;;;;;;24.71;50.60;99399.97;2059551;28;19917;-68
2021/08/27 01:54:26;;;;;;;;;;;;;;;24.71;50.34;99400.81;2054731;28;19928;-69
2021/08/27 01:55:26;;;;;;;;;;;;;;;24.69;50.35;99402.91;2053310;28;19924;-68
2021/08/27 01:56:27;;;;;;;;;;;;;;;24.70;50.39;99409.31;2060764;28;19924;-69
2021/08/27 01:57:28;;;;;;;;;;;;;;;24.69;50.51;99402.91;2067430;28;19960;-69
2021/08/27 01:58:29;;;;;;;;;;;;;;;24.69;50.61;99397.41;2069111;28;19996;-68
2021/08/27 01:59:41;;;;;;;;;;;;;;;24.68;50.35;99403.97;2055490;28;19953;-69
2021/08/27 02:00:41;;;;;;;;;;;;;;;24.69;50.61;99399.31;2054789;28;20316;-69
2021/08/27 02:01:42;;;;;;;;;;;;;;;24.69;50.38;99397.41;2061206;28;19917;-69
2021/08/27 02:02:43;;;;;;;;;;;;;;;24.69;50.51;99413.09;2057506;28;19936;-69
2021/08/27 02:03:44;;;;;;;;;;;;;;;24.69;50.49;99404.81;2055781;28;19956;-69
2021/08/27 02:04:49;;;;;;;;;;;;;;;24.69;50.43;99410.34;2062838;28;19922;-69
2021/08/27 02:05:50;;;;;;;;;;;;;;;24.68;50.57;99411.41;2060459;28;20300;-68
2021/08/27 02:06:50;;;;;;;;;;;;;;;24.69;50.57;99408.44;2056875;28;20036;-69
2021/08/27 02:07:51;;;;;;;;;;;;;;;24.68;50.56;99401.22;2059118;28;19944;-69
2021/08/27 02:08:53;;;;;;;;;;;;;;;24.68;50.50;99412.25;2056812;28;20011;-69
2021/08/27 02:09:55;;;;;;;;;;;;;;;24.68;50.51;99403.97;2055033;28;19921;-69
2021/08/27 02:10:56;;;;;;;;;;;;;;;24.68;50.53;99401.22;2058937;28;20011;-61
2021/08/27 02:11:56;;;;;;;;;;;;;;;24.68;50.56;99400.38;2055748;28;19933;-62
2021/08/27 02:12:58;;;;;;;;;;;;;;;24.68;50.49;99406.72;2059596;28;19969;-61
2021/08/27 02:13:58;;;;;;;;;;;;;;;24.68;50.51;99401.22;2061821;28;19921;-61
2021/08/27 02:14:59;;;;;;;;;;;;;;;24.67;50.55;99405.06;2057883;28;20012;-62
2021/08/27 02:16:01;;;;;;;;;;;;;;;24.68;50.50;99400.38;2061141;28;20402;-62
2021/08/27 02:17:08;;;;;;;;;;;;;;;24.68;50.50;99405.88;2058003;28;19928;-62
2021/08/27 02:18:09;;;;;;;;;;;;;;;24.68;50.53;99405.88;2056928;28;20016;-61
2021/08/27 02:19:09;;;;;;;;;;;;;;;24.66;50.67;99403.31;2056919;28;19956;-61
2021/08/27 02:20:10;;;;;;;;;;;;;;;24.68;50.42;99401.22;2058627;28;19948;-61
2021/08/27 02:21:11;;;;;;;;;;;;;;;24.67;50.60;99402.28;2055175;28;19993;-61
2021/08/27 02:22:13;;;;;;;;;;;;;;;24.68;50.49;99400.38;2058218;28;19922;-61
2021/08/27 02:23:14;;;;;;;;;;;;;;;24.67;50.60;99399.53;2055406;28;20770;-62
2021/08/27 02:24:26;;;;;;;;;;;;;;;24.65;50.59;99396.13;2062162;28;19926;-61
2021/08/27 02:25:29;;;;;;;;;;;;;;;24.65;50.60;99396.13;2056838;28;19926;-61
2021/08/27 02:26:30;;;;;;;;;;;;;;;24.65;50.59;99400.78;2058089;28;19979;-62
2021/08/27 02:27:31;;;;;;;;;;;;;;;24.65;50.57;99393.38;2060779;28;19964;-61
2021/08/27 02:28:32;;;;;;;;;;;;;;;24.66;50.58;99399.72;2059032;28;19917;-61
2021/08/27 02:29:35;;;;;;;;;;;;;;;24.65;50.51;99401.63;2054920;28;19928;-69
2021/08/27 02:30:35;;;;;;;;;;;;;;;24.65;50.48;99404.41;2054972;28;19924;-68
2021/08/27 02:31:36;;;;;;;;;;;;;;;24.65;50.42;99401.63;2054144;28;19945;-69
2021/08/27 02:32:37;;;;;;;;;;;;;;;24.65;50.59;99406.31;2054721;28;19975;-69
2021/08/27 02:33:41;;;;;;;;;;;;;;;24.65;50.66;99401.63;2058722;28;19956;-69
2021/08/27 02:34:43;;;;;;;;;;;;;;;24.65;50.68;99411.81;2059453;28;20009;-69
2021/08/27 02:35:44;;;;;;;;;;;;;;;24.65;50.45;99404.41;2054170;28;19937;-68
2021/08/27 02:36:46;;;;;;;;;;;;;;;24.64;50.51;99408.19;2056127;28;20662;-69
2021/08/27 02:37:48;;;;;;;;;;;;;;;24.64;50.64;99405.44;2058849;28;19960;-69
2021/08/27 02:38:49;;;;;;;;;;;;;;;24.64;50.53;99405.44;2058824;28;20181;-68
2021/08/27 02:39:49;;;;;;;;;;;;;;;24.65;50.57;99418.16;2061114;28;20354;-68
2021/08/27 02:40:49;;;;;;;;;;;;;;;24.65;50.60;99414.56;2060254;28;20935;-69
2021/08/27 02:41:51;;;;;;;;;;;;;;;24.64;50.53;99415.59;2061251;28;19967;-68
2021/08/27 02:42:51;;;;;;;;;;;;;;;24.64;50.63;99415.59;2059704;28;19925;-69
2021/08/27 02:43:51;;;;;;;;;;;;;;;24.64;50.65;99415.59;2054400;28;19932;-68
2021/08/27 02:44:52;;;;;;;;;;;;;;;24.64;50.63;99416.44;2074771;28;19925;-68
2021/08/27 02:45:52;;;;;;;;;;;;;;;24.64;50.67;99413.69;2073740;28;21575;-69
2021/08/27 02:46:52;;;;;;;;;;;;;;;24.64;50.73;99415.59;2059867;28;20432;-69
2021/08/27 02:47:53;;;;;;;;;;;;;;;24.63;50.58;99423.03;2060520;28;20571;-68
2021/08/27 02:48:53;;;;;;;;;;;;;;;24.64;50.57;99415.59;2060719;28;19933;-68
2021/08/27 02:49:54;;;;;;;;;;;;;;;24.64;50.73;99423.88;2056220;28;19922;-68
2021/08/27 02:51:04;;;;;;;;;;;;;;;24.63;50.66;99425.78;2057700;28;20129;-69
2021/08/27 02:52:05;;;;;;;;;;;;;;;24.62;50.61;99418.59;2060570;28;19933;-69
2021/08/27 02:53:09;;;;;;;;;;;;;;;24.61;50.68;99427.88;2061603;28;19918;-68
2021/08/27 02:54:13;;;;;;;;;;;;;;;24.62;50.81;99423.22;2059781;28;20179;-69
2021/08/27 02:55:25;;;;;;;;;;;;;;;24.62;50.75;99423.22;2059529;28;19971;-69
2021/08/27 02:56:26;;;;;;;;;;;;;;;24.61;50.70;99427.88;2058292;28;19921;-69
2021/08/27 02:57:27;;;;;;;;;;;;;;;24.62;50.76;99424.09;2055321;28;19921;-69
2021/08/27 02:58:29;;;;;;;;;;;;;;;24.61;50.75;99433.41;2060516;28;19921;-69
2021/08/27 02:59:30;;;;;;;;;;;;;;;24.61;50.68;99433.41;2061678;28;19927;-69
2021/08/27 03:00:38;;;;;;;;;;;;;;;24.60;50.69;99420.69;2061124;28;19922;-69
2021/08/27 03:01:40;;;;;;;;;;;;;;;24.62;50.63;99428.72;2060226;28;20106;-69
2021/08/27 03:02:40;;;;;;;;;;;;;;;24.62;50.63;99429.59;2060912;28;20094;-69
2021/08/27 03:03:47;;;;;;;;;;;;;;;24.62;50.76;99429.59;2074835;28;19928;-69
2021/08/27 03:04:47;;;;;;;;;;;;;;;24.61;50.76;99422.38;2072223;28;19923;-68
2021/08/27 03:05:49;;;;;;;;;;;;;;;24.60;50.74;99421.53;2056685;28;19924;-68
2021/08/27 03:07:05;;;;;;;;;;;;;;;24.61;50.79;99427.88;2059673;28;20060;-69
2021/08/27 03:08:06;;;;;;;;;;;;;;;24.61;50.67;99425.13;2060288;28;19928;-68
2021/08/27 03:09:08;;;;;;;;;;;;;;;24.61;50.70;99430.63;2060286;28;20359;-69
2021/08/27 03:10:12;;;;;;;;;;;;;;;24.60;50.63;99432.56;2059322;28;20396;-69
2021/08/27 03:11:30;;;;;;;;;;;;;;;24.59;50.64;99433.59;2057343;28;19930;-69
2021/08/27 03:12:39;;;;;;;;;;;;;;;24.59;50.56;99441.00;2058415;28;19925;-68
2021/08/27 03:13:42;;;;;;;;;;;;;;;24.60;50.61;99437.22;2059638;28;19925;-69
2021/08/27 03:14:51;;;;;;;;;;;;;;;24.60;50.75;99442.72;2057597;28;19961;-69
2021/08/27 03:15:56;;;;;;;;;;;;;;;24.60;50.75;99439.97;2057409;28;19922;-68
2021/08/27 03:16:59;;;;;;;;;;;;;;;24.60;50.77;99442.72;2057132;28;20491;-69
2021/08/27 03:18:06;;;;;;;;;;;;;;;24.60;50.75;99448.25;2058974;28;20004;-69
2021/08/27 03:19:10;;;;;;;;;;;;;;;24.59;50.79;99452.03;2058473;28;19924;-68
2021/08/27 03:20:25;;;;;;;;;;;;;;;24.59;50.86;99446.53;2056029;28;19924;-69
2021/08/27 03:21:45;;;;;;;;;;;;;;;24.58;50.85;99456.69;2057505;28;19914;-69
2021/08/27 03:22:48;;;;;;;;;;;;;;;24.59;50.81;99443.75;2055436;28;19928;-69
2021/08/27 03:23:49;;;;;;;;;;;;;;;24.58;50.85;99447.59;2058132;28;20024;-68
2021/08/27 03:24:53;;;;;;;;;;;;;;;24.58;50.95;99439.31;2057182;28;19925;-68
2021/08/27 03:25:55;;;;;;;;;;;;;;;24.57;50.87;99441.22;2057887;28;19961;-68
2021/08/27 03:26:59;;;;;;;;;;;;;;;24.58;50.92;99447.59;2060594;28;19922;-69
2021/08/27 03:28:03;;;;;;;;;;;;;;;24.57;50.89;99437.59;2057374;28;19996;-69
2021/08/27 03:29:05;;;;;;;;;;;;;;;24.58;50.65;99440.16;2056803;28;19929;-69
2021/08/27 03:30:09;;;;;;;;;;;;;;;24.58;50.58;99439.31;2061075;28;19933;-69
2021/08/27 03:31:10;;;;;;;;;;;;;;;24.57;50.83;99438.47;2059939;28;19917;-69
2021/08/27 03:32:11;;;;;;;;;;;;;;;24.59;50.85;99443.75;2059193;28;20221;-69
2021/08/27 03:33:11;;;;;;;;;;;;;;;24.58;50.73;99439.31;2058474;28;19920;-69
2021/08/27 03:34:12;;;;;;;;;;;;;;;24.58;50.66;99450.34;2056940;28;20138;-69
2021/08/27 03:35:14;;;;;;;;;;;;;;;24.57;50.74;99444.00;2060332;28;20477;-69
2021/08/27 03:36:14;;;;;;;;;;;;;;;24.57;50.79;99446.75;2060351;28;19925;-69
2021/08/27 03:37:17;;;;;;;;;;;;;;;24.57;50.70;99449.50;2061123;28;19978;-69
2021/08/27 03:38:19;;;;;;;;;;;;;;;24.57;50.85;99445.88;2058291;28;19914;-69
2021/08/27 03:39:20;;;;;;;;;;;;;;;24.55;50.78;99440.56;2059254;28;20865;-68
2021/08/27 03:40:21;;;;;;;;;;;;;;;24.55;50.79;99448.00;2060514;28;19910;-69
2021/08/27 03:41:24;;;;;;;;;;;;;;;24.56;50.92;99444.19;2072374;28;20466;-69
2021/08/27 03:42:24;;;;;;;;;;;;;;;24.56;50.87;99445.03;2073009;28;20403;-69
2021/08/27 03:43:25;;;;;;;;;;;;;;;24.57;50.75;99443.13;2059616;28;20560;-69
2021/08/27 03:44:26;;;;;;;;;;;;;;;24.56;50.78;99435.91;2059233;28;20426;-68
2021/08/27 03:45:27;;;;;;;;;;;;;;;24.56;50.75;99441.41;2061207;28;19928;-68
2021/08/27 03:46:27;;;;;;;;;;;;;;;24.56;50.94;99445.03;2060361;28;19961;-69
2021/08/27 03:47:29;;;;;;;;;;;;;;;24.56;50.88;99446.94;2059239;28;19977;-69
2021/08/27 03:48:30;;;;;;;;;;;;;;;24.55;50.83;99439.72;2057055;28;19968;-68
2021/08/27 03:49:32;;;;;;;;;;;;;;;24.55;50.77;99443.34;2058803;28;19922;-69
2021/08/27 03:50:32;;;;;;;;;;;;;;;24.56;50.68;99446.94;2060927;28;20499;-69
2021/08/27 03:51:33;;;;;;;;;;;;;;;24.55;50.86;99439.72;2058874;28;20412;-69
2021/08/27 03:52:34;;;;;;;;;;;;;;;24.55;50.81;99439.72;2056162;28;19930;-69
2021/08/27 03:53:36;;;;;;;;;;;;;;;24.55;50.87;99439.72;2060801;28;21175;-68
2021/08/27 03:54:38;;;;;;;;;;;;;;;24.55;50.80;99445.25;2057161;28;19922;-69
2021/08/27 03:55:38;;;;;;;;;;;;;;;24.54;50.74;99444.38;2062944;28;20696;-69
2021/08/27 03:56:39;;;;;;;;;;;;;;;24.56;50.87;99446.94;2071344;28;20343;-69
2021/08/27 03:57:41;;;;;;;;;;;;;;;24.56;50.82;99446.94;2067551;28;20382;-69
2021/08/27 03:58:42;;;;;;;;;;;;;;;24.54;50.75;99449.03;2058790;28;19925;-69
2021/08/27 03:59:43;;;;;;;;;;;;;;;24.54;50.70;99443.53;2059537;28;19928;-69
2021/08/27 04:00:44;;;;;;;;;;;;;;;24.54;50.88;99443.53;2061403;28;19963;-69
2021/08/27 04:01:45;;;;;;;;;;;;;;;24.54;50.79;99449.03;2073032;28;19920;-69
2021/08/27 04:02:46;;;;;;;;;;;;;;;24.54;50.91;99446.28;2069427;28;19921;-68
2021/08/27 04:03:46;;;;;;;;;;;;;;;24.53;50.88;99448.19;2061404;28;19933;-69
2021/08/27 04:04:47;;;;;;;;;;;;;;;24.53;50.89;99450.94;2059649;28;19924;-68
2021/08/27 04:06:04;;;;;;;;;;;;;;;24.54;50.85;99449.03;2060351;28;19928;-69
2021/08/27 04:07:04;;;;;;;;;;;;;;;24.53;50.79;99447.34;2058151;28;20015;-68
2021/08/27 04:08:04;;;;;;;;;;;;;;;24.54;50.88;99443.53;2055104;28;19976;-69
2021/08/27 04:09:05;;;;;;;;;;;;;;;24.54;50.87;99443.53;2060229;28;20158;-68
2021/08/27 04:10:05;;;;;;;;;;;;;;;24.52;50.86;99440.13;2057426;28;19922;-68
2021/08/27 04:11:06;;;;;;;;;;;;;;;24.54;50.85;99443.53;2065892;28;19921;-69
2021/08/27 04:12:07;;;;;;;;;;;;;;;24.53;50.85;99441.84;2061581;28;19974;-69
2021/08/27 04:13:07;;;;;;;;;;;;;;;24.53;50.91;99448.19;2059759;28;19925;-69
2021/08/27 04:14:07;;;;;;;;;;;;;;;24.54;50.95;99443.53;2059951;28;20015;-68
2021/08/27 04:15:09;;;;;;;;;;;;;;;24.53;50.93;99447.34;2058700;28;19921;-69
2021/08/27 04:16:09;;;;;;;;;;;;;;;24.55;50.95;99445.25;2061668;28;20582;-69
2021/08/27 04:17:09;;;;;;;;;;;;;;;24.52;50.85;99440.13;2057626;28;20300;-69
2021/08/27 04:18:10;;;;;;;;;;;;;;;24.52;50.85;99445.63;2070863;28;20003;-69
2021/08/27 04:19:12;;;;;;;;;;;;;;;24.52;50.97;99451.13;2069317;28;19928;-69
2021/08/27 04:20:13;;;;;;;;;;;;;;;24.52;50.94;99445.63;2057714;28;19932;-69
2021/08/27 04:21:13;;;;;;;;;;;;;;;24.51;50.80;99447.53;2052966;28;19913;-68
2021/08/27 04:22:13;;;;;;;;;;;;;;;24.51;50.92;99449.44;2060551;28;19922;-68
2021/08/27 04:23:14;;;;;;;;;;;;;;;24.51;50.83;99449.44;2058324;28;19932;-68
2021/08/27 04:24:14;;;;;;;;;;;;;;;24.51;51.00;99443.94;2056160;28;20525;-69
2021/08/27 04:25:15;;;;;;;;;;;;;;;24.51;50.85;99449.44;2057256;28;19918;-68
2021/08/27 04:26:16;;;;;;;;;;;;;;;24.51;50.79;99441.19;2058399;28;19960;-69
2021/08/27 04:27:17;;;;;;;;;;;;;;;24.50;50.94;99442.22;2057351;28;19925;-68
2021/08/27 04:28:17;;;;;;;;;;;;;;;24.50;50.90;99445.84;2057836;28;20295;-68
2021/08/27 04:29:17;;;;;;;;;;;;;;;24.50;50.94;99447.72;2059536;28;19925;-69
2021/08/27 04:30:17;;;;;;;;;;;;;;;24.49;50.98;99452.38;2058211;28;20173;-68
2021/08/27 04:31:18;;;;;;;;;;;;;;;24.50;50.97;99456.00;2058960;28;19972;-68
2021/08/27 04:32:19;;;;;;;;;;;;;;;24.51;51.01;99443.94;2060866;28;19936;-69
2021/08/27 04:33:19;;;;;;;;;;;;;;;24.49;50.85;99454.28;2058714;28;19925;-68
2021/08/27 04:34:19;;;;;;;;;;;;;;;24.50;50.90;99454.09;2076126;28;20345;-68
2021/08/27 04:35:19;;;;;;;;;;;;;;;24.49;50.92;99451.53;2072202;28;20124;-68
2021/08/27 04:36:20;;;;;;;;;;;;;;;24.49;50.93;99451.53;2056401;28;20717;-68
2021/08/27 04:37:21;;;;;;;;;;;;;;;24.49;50.92;99451.53;2057614;28;19979;-68
2021/08/27 04:38:21;;;;;;;;;;;;;;;24.49;50.88;99454.28;2058278;28;19921;-68
2021/08/27 04:39:22;;;;;;;;;;;;;;;24.49;50.94;99451.53;2054959;28;20549;-68
2021/08/27 04:40:23;;;;;;;;;;;;;;;24.50;50.90;99458.75;2056817;28;19983;-68
2021/08/27 04:41:23;;;;;;;;;;;;;;;24.50;50.96;99459.63;2057690;28;20340;-68
2021/08/27 04:42:24;;;;;;;;;;;;;;;24.50;50.90;99458.75;2061001;28;19921;-68
2021/08/27 04:43:24;;;;;;;;;;;;;;;24.50;50.89;99454.09;2057569;28;19921;-68
2021/08/27 04:44:24;;;;;;;;;;;;;;;24.49;50.90;99451.53;2056629;28;19967;-68
2021/08/27 04:45:24;;;;;;;;;;;;;;;24.51;50.86;99457.72;2060075;28;19928;-68
2021/08/27 04:46:25;;;;;;;;;;;;;;;24.50;50.80;99456.88;2059581;28;19917;-68
2021/08/27 04:47:25;;;;;;;;;;;;;;;24.50;50.74;99459.63;2055660;28;19925;-68
2021/08/27 04:48:25;;;;;;;;;;;;;;;24.50;50.84;99453.22;2059347;28;19921;-68
2021/08/27 04:49:26;;;;;;;;;;;;;;;24.50;50.82;99458.75;2057595;28;19941;-68
2021/08/27 04:50:26;;;;;;;;;;;;;;;24.49;50.79;99462.56;2060968;28;20020;-68
2021/08/27 04:51:26;;;;;;;;;;;;;;;24.48;50.71;99460.88;2055050;28;19934;-68
2021/08/27 04:52:27;;;;;;;;;;;;;;;24.49;50.65;99459.81;2061328;28;19975;-68
2021/08/27 04:53:27;;;;;;;;;;;;;;;24.48;50.78;99458.97;2059269;28;19914;-68
2021/08/27 04:54:27;;;;;;;;;;;;;;;24.49;50.83;99470.81;2058953;28;19921;-68
2021/08/27 04:55:28;;;;;;;;;;;;;;;24.49;50.80;99468.06;2059858;28;19925;-68
2021/08/27 04:56:28;;;;;;;;;;;;;;;24.49;50.79;99465.31;2074046;28;19921;-68
2021/08/27 04:57:30;;;;;;;;;;;;;;;24.49;50.79;99465.31;2076447;28;19943;-68
2021/08/27 04:58:30;;;;;;;;;;;;;;;24.49;50.77;99462.56;2059532;28;19913;-68
2021/08/27 04:59:31;;;;;;;;;;;;;;;24.48;50.72;99469.13;2059963;28;19921;-68
2021/08/27 05:00:31;;;;;;;;;;;;;;;24.48;50.83;99466.38;2059442;28;19929;-68
2021/08/27 05:01:31;;;;;;;;;;;;;;;24.48;50.83;99467.22;2055151;28;19917;-69
2021/08/27 05:02:31;;;;;;;;;;;;;;;24.48;50.78;99471.91;2060406;28;19917;-70
2021/08/27 05:03:32;;;;;;;;;;;;;;;24.49;50.75;99465.31;2056954;28;20714;-69
2021/08/27 05:04:32;;;;;;;;;;;;;;;24.49;50.63;99468.06;2058536;28;20412;-69
2021/08/27 05:05:35;;;;;;;;;;;;;;;24.49;50.65;99473.59;2057841;28;20294;-69
2021/08/27 05:06:35;;;;;;;;;;;;;;;24.48;50.73;99469.97;2058971;28;19930;-70
2021/08/27 05:07:35;;;;;;;;;;;;;;;24.48;50.65;99467.22;2059729;28;19921;-69
2021/08/27 05:08:36;;;;;;;;;;;;;;;24.47;50.85;99464.66;2069988;28;19978;-69
2021/08/27 05:09:36;;;;;;;;;;;;;;;24.47;50.80;99470.16;2072879;28;19922;-69
2021/08/27 05:10:37;;;;;;;;;;;;;;;24.47;50.82;99461.91;2059411;28;19920;-69
2021/08/27 05:11:37;;;;;;;;;;;;;;;24.47;50.89;99467.41;2055977;28;20588;-69
2021/08/27 05:12:37;;;;;;;;;;;;;;;24.46;50.95;99474.00;2060642;28;20068;-69
2021/08/27 05:13:39;;;;;;;;;;;;;;;24.45;50.89;99466.72;2054993;28;20200;-69
2021/08/27 05:14:40;;;;;;;;;;;;;;;24.46;50.75;99474.84;2060539;28;19953;-69
2021/08/27 05:15:40;;;;;;;;;;;;;;;24.47;50.82;99472.94;2058418;28;19913;-69
2021/08/27 05:16:40;;;;;;;;;;;;;;;24.45;50.86;99477.75;2071520;28;20128;-68
2021/08/27 05:17:41;;;;;;;;;;;;;;;24.45;50.76;99472.22;2068862;28;19917;-69
2021/08/27 05:18:41;;;;;;;;;;;;;;;24.45;50.74;99473.13;2057697;28;19921;-70
2021/08/27 05:19:41;;;;;;;;;;;;;;;24.46;50.95;99477.59;2053159;28;19914;-70
2021/08/27 05:20:41;;;;;;;;;;;;;;;24.45;50.91;99473.13;2058301;28;19941;-69
2021/08/27 05:21:42;;;;;;;;;;;;;;;24.45;50.81;99473.13;2071906;28;19975;-69
2021/08/27 05:22:42;;;;;;;;;;;;;;;24.45;50.76;99475.88;2074163;28;19921;-69